createdAt,value
2022-08-03T00:00:32.524Z,98465.00
2022-08-03T00:02:59.872Z,98468.00
2022-08-03T00:05:27.224Z,98455.00
2022-08-03T00:07:55.152Z,98462.00
2022-08-03T00:10:23.479Z,98464.00
2022-08-03T00:12:51.081Z,98462.00
2022-08-03T00:15:18.628Z,98462.00
2022-08-03T00:17:52.618Z,98452.00
2022-08-03T00:20:22.569Z,98452.00
2022-08-03T00:22:51.478Z,98455.00
2022-08-03T00:25:19.416Z,98456.00
2022-08-03T00:27:48.264Z,98453.00
2022-08-03T00:30:17.003Z,98453.00
2022-08-03T00:32:45.583Z,98446.00
2022-08-03T00:35:25.134Z,98452.00
2022-08-03T00:38:00.757Z,98457.00
2022-08-03T00:40:28.575Z,98460.00
2022-08-03T00:43:04.584Z,98461.00
2022-08-03T00:45:42.529Z,98463.00
2022-08-03T00:48:19.786Z,98461.00
2022-08-03T00:51:01.600Z,98469.00
2022-08-03T00:53:29.443Z,98466.00
2022-08-03T00:55:57.036Z,98454.00
2022-08-03T00:58:24.502Z,98459.00
2022-08-03T01:00:52.029Z,98453.00
2022-08-03T01:03:19.392Z,98450.00
2022-08-03T01:06:04.795Z,98445.00
2022-08-03T01:09:07.989Z,98446.00
2022-08-03T01:12:11.801Z,98444.00
2022-08-03T01:15:31.712Z,98448.00
2022-08-03T01:19:12.813Z,98451.00
2022-08-03T01:22:14.682Z,98449.00
2022-08-03T01:25:26.968Z,98448.00
2022-08-03T01:29:05.931Z,98451.00
2022-08-03T01:32:54.594Z,98445.00
2022-08-03T01:35:17.117Z,98434.00
2022-08-03T01:38:07.118Z,98435.00
2022-08-03T01:40:36.741Z,98436.00
2022-08-03T01:43:08.780Z,98437.00
2022-08-03T01:45:37.731Z,98436.00
2022-08-03T01:48:07.590Z,98439.00
2022-08-03T01:50:35.452Z,98445.00
2022-08-03T01:53:03.602Z,98444.00
2022-08-03T01:55:33.287Z,98442.00
2022-08-03T01:58:06.823Z,98443.00
2022-08-03T02:00:37.884Z,98443.00
2022-08-03T02:03:07.850Z,98439.00
2022-08-03T02:05:36.411Z,98440.00
2022-08-03T02:08:09.199Z,98440.00
2022-08-03T02:10:37.705Z,98438.00
2022-08-03T02:13:09.290Z,98443.00
2022-08-03T02:15:39.247Z,98437.00
2022-08-03T02:18:11.002Z,98430.00
2022-08-03T02:20:44.244Z,98426.00
2022-08-03T02:23:11.963Z,98435.00
2022-08-03T02:25:48.207Z,98442.00
2022-08-03T02:28:24.833Z,98436.00
2022-08-03T02:30:56.006Z,98433.00
2022-08-03T02:33:42.460Z,98432.00
2022-08-03T02:36:14.505Z,98422.00
2022-08-03T02:38:45.468Z,98428.00
2022-08-03T02:41:21.247Z,98423.00
2022-08-03T02:44:06.391Z,98424.00
2022-08-03T02:46:44.540Z,98424.00
2022-08-03T02:49:40.552Z,98423.00
2022-08-03T02:52:11.355Z,98413.00
2022-08-03T02:54:46.646Z,98409.00
2022-08-03T02:57:15.262Z,98423.00
2022-08-03T02:59:44.221Z,98416.00
2022-08-03T03:02:12.633Z,98418.00
2022-08-03T03:04:56.198Z,98426.00
2022-08-03T03:07:29.454Z,98410.00
2022-08-03T03:10:03.227Z,98414.00
2022-08-03T03:12:34.306Z,98416.00
2022-08-03T03:15:01.629Z,98407.00
2022-08-03T03:17:31.055Z,98411.00
2022-08-03T03:19:59.249Z,98415.00
2022-08-03T03:22:28.162Z,98416.00
2022-08-03T03:24:56.020Z,98413.00
2022-08-03T03:27:24.751Z,98405.00
2022-08-03T03:29:55.016Z,98417.00
2022-08-03T03:32:22.564Z,98423.00
2022-08-03T03:34:50.505Z,98416.00
2022-08-03T03:37:18.478Z,98422.00
2022-08-03T03:39:45.812Z,98413.00
2022-08-03T03:42:13.787Z,98415.00
2022-08-03T03:44:41.586Z,98415.00
2022-08-03T03:47:08.982Z,98414.00
2022-08-03T03:49:37.330Z,98421.00
2022-08-03T03:52:05.178Z,98420.00
2022-08-03T03:54:45.639Z,98423.00
2022-08-03T03:57:13.920Z,98420.00
2022-08-03T03:59:42.592Z,98424.00
2022-08-03T04:02:12.532Z,98425.00
2022-08-03T04:04:58.823Z,98426.00
2022-08-03T04:07:46.874Z,98430.00
2022-08-03T04:10:56.592Z,98432.00
2022-08-03T04:13:25.410Z,98427.00
2022-08-03T04:15:54.439Z,98428.00
2022-08-03T04:18:22.713Z,98422.00
2022-08-03T04:20:51.985Z,98424.00
2022-08-03T04:23:25.156Z,98435.00
2022-08-03T04:25:55.695Z,98420.00
2022-08-03T04:28:31.426Z,98436.00
2022-08-03T04:31:01.616Z,98434.00
2022-08-03T04:33:33.443Z,98435.00
2022-08-03T04:36:09.290Z,98438.00
2022-08-03T04:39:00.845Z,98439.00
2022-08-03T04:41:30.440Z,98442.00
2022-08-03T04:44:00.779Z,98437.00
2022-08-03T04:46:35.732Z,98438.00
2022-08-03T04:49:03.265Z,98436.00
2022-08-03T04:51:31.523Z,98438.00
2022-08-03T04:53:59.530Z,98434.00
2022-08-03T04:56:26.988Z,98440.00
2022-08-03T04:58:56.097Z,98435.00
2022-08-03T05:01:23.518Z,98440.00
2022-08-03T05:03:51.666Z,98440.00
2022-08-03T05:06:18.985Z,98445.00
2022-08-03T05:08:50.883Z,98443.00
2022-08-03T05:11:18.862Z,98450.00
2022-08-03T05:13:46.900Z,98453.00
2022-08-03T05:16:15.244Z,98447.00
2022-08-03T05:18:44.165Z,98447.00
2022-08-03T05:21:16.929Z,98452.00
2022-08-03T05:23:45.348Z,98444.00
2022-08-03T05:26:12.908Z,98443.00
2022-08-03T05:28:40.669Z,98444.00
2022-08-03T05:31:19.847Z,98446.00
2022-08-03T05:33:48.911Z,98448.00
2022-08-03T05:36:16.471Z,98453.00
2022-08-03T05:38:43.782Z,98458.00
2022-08-03T05:41:21.625Z,98448.00
2022-08-03T05:43:55.356Z,98460.00
2022-08-03T05:46:23.887Z,98454.00
2022-08-03T05:48:51.484Z,98452.00
2022-08-03T05:51:19.112Z,98454.00
2022-08-03T05:53:46.731Z,98460.00
2022-08-03T05:56:16.220Z,98458.00
2022-08-03T05:58:47.473Z,98462.00
2022-08-03T06:01:21.812Z,98451.00
2022-08-03T06:03:51.065Z,98453.00
2022-08-03T06:06:18.855Z,98451.00
2022-08-03T06:08:46.948Z,98447.00
2022-08-03T06:11:15.253Z,98443.00
2022-08-03T06:13:43.881Z,98449.00
2022-08-03T06:16:11.531Z,98454.00
2022-08-03T06:18:40.447Z,98450.00
2022-08-03T06:21:15.562Z,98449.00
2022-08-03T06:23:54.618Z,98447.00
2022-08-03T06:26:26.979Z,98455.00
2022-08-03T06:28:55.439Z,98449.00
2022-08-03T06:31:33.120Z,98455.00
2022-08-03T06:34:34.351Z,98441.00
2022-08-03T06:36:58.580Z,98446.00
2022-08-03T06:39:29.630Z,98452.00
2022-08-03T06:41:57.968Z,98448.00
2022-08-03T06:44:25.300Z,98449.00
2022-08-03T06:46:53.842Z,98447.00
2022-08-03T06:49:24.602Z,98460.00
2022-08-03T06:52:05.545Z,98449.00
2022-08-03T06:54:34.506Z,98454.00
2022-08-03T06:57:02.712Z,98451.00
2022-08-03T07:00:09.847Z,98447.00
2022-08-03T07:02:21.091Z,98456.00
2022-08-03T07:04:49.628Z,98448.00
2022-08-03T07:07:17.812Z,98444.00
2022-08-03T07:09:56.434Z,98451.00
2022-08-03T07:12:26.364Z,98453.00
2022-08-03T07:14:59.771Z,98456.00
2022-08-03T07:17:30.898Z,98447.00
2022-08-03T07:19:58.914Z,98453.00
2022-08-03T07:22:26.803Z,98447.00
2022-08-03T07:24:54.427Z,98450.00
2022-08-03T07:27:21.915Z,98456.00
2022-08-03T07:29:49.366Z,98457.00
2022-08-03T07:32:16.924Z,98459.00
2022-08-03T07:34:44.717Z,98461.00
2022-08-03T07:37:12.037Z,98453.00
2022-08-03T07:39:39.349Z,98470.00
2022-08-03T07:42:07.037Z,98457.00
2022-08-03T07:44:34.593Z,98456.00
2022-08-03T07:47:03.451Z,98449.00
2022-08-03T07:49:31.491Z,98458.00
2022-08-03T07:52:17.776Z,98454.00
2022-08-03T07:54:45.518Z,98451.00
2022-08-03T07:57:13.018Z,98453.00
2022-08-03T07:59:57.190Z,98450.00
2022-08-03T08:02:29.247Z,98453.00
2022-08-03T08:04:56.622Z,98449.00
2022-08-03T08:07:25.246Z,98445.00
2022-08-03T08:09:52.835Z,98445.00
2022-08-03T08:12:20.419Z,98452.00
2022-08-03T08:14:48.118Z,98440.00
2022-08-03T08:17:15.543Z,98440.00
2022-08-03T08:19:45.970Z,98439.00
2022-08-03T08:22:30.231Z,98438.00
2022-08-03T08:24:59.779Z,98438.00
2022-08-03T08:28:30.318Z,98442.00
2022-08-03T08:30:21.881Z,98439.00
2022-08-03T08:32:51.516Z,98439.00
2022-08-03T08:35:19.593Z,98433.00
2022-08-03T08:37:51.192Z,98439.00
2022-08-03T08:40:22.947Z,98432.00
2022-08-03T08:42:58.571Z,98429.00
2022-08-03T08:45:28.038Z,98426.00
2022-08-03T08:48:01.085Z,98423.00
2022-08-03T08:50:31.901Z,98426.00
2022-08-03T08:53:03.835Z,98422.00
2022-08-03T08:55:58.749Z,98422.00
2022-08-03T08:58:23.408Z,98423.00
2022-08-03T09:00:51.704Z,98423.00
2022-08-03T09:03:22.512Z,98430.00
2022-08-03T09:06:00.896Z,98423.00
2022-08-03T09:08:34.433Z,98426.00
2022-08-03T09:11:01.898Z,98421.00
2022-08-03T09:13:30.443Z,98423.00
2022-08-03T09:16:21.404Z,98421.00
2022-08-03T09:18:54.540Z,98424.00
2022-08-03T09:21:33.637Z,98427.00
2022-08-03T09:24:08.456Z,98427.00
2022-08-03T09:26:49.457Z,98424.00
2022-08-03T09:29:22.234Z,98421.00
2022-08-03T09:31:49.572Z,98426.00
2022-08-03T09:34:18.451Z,98416.00
2022-08-03T09:36:52.317Z,98418.00
2022-08-03T09:39:40.626Z,98414.00
2022-08-03T09:42:23.731Z,98418.00
2022-08-03T09:44:53.089Z,98408.00
2022-08-03T09:47:37.435Z,98402.00
2022-08-03T09:50:12.998Z,98404.00
2022-08-03T09:52:50.057Z,98407.00
2022-08-03T09:56:33.292Z,98404.00
2022-08-03T09:58:14.305Z,98405.00
2022-08-03T10:01:06.351Z,98393.00
2022-08-03T10:04:03.027Z,98391.00
2022-08-03T10:06:29.061Z,98391.00
2022-08-03T10:09:11.242Z,98391.00
2022-08-03T10:11:42.445Z,98393.00
2022-08-03T10:14:23.414Z,98389.00
2022-08-03T10:16:50.827Z,98385.00
2022-08-03T10:19:18.353Z,98391.00
2022-08-03T10:21:56.910Z,98379.00
2022-08-03T10:24:29.486Z,98377.00
2022-08-03T10:27:08.233Z,98377.00
2022-08-03T10:29:42.868Z,98378.00
2022-08-03T10:32:32.476Z,98364.00
2022-08-03T10:35:21.063Z,98364.00
2022-08-03T10:38:09.065Z,98359.00
2022-08-03T10:40:57.166Z,98354.00
2022-08-03T10:43:59.279Z,98348.00
2022-08-03T10:46:27.648Z,98359.00
2022-08-03T10:48:56.765Z,98353.00
2022-08-03T10:51:26.506Z,98348.00
2022-08-03T10:53:55.238Z,98348.00
2022-08-03T10:56:54.401Z,98351.00
2022-08-03T10:59:46.881Z,98344.00
2022-08-03T11:02:15.730Z,98343.00
2022-08-03T11:04:45.202Z,98338.00
2022-08-03T11:07:26.327Z,98337.00
2022-08-03T11:09:56.566Z,98335.00
2022-08-03T11:12:31.452Z,98341.00
2022-08-03T11:15:09.388Z,98332.00
2022-08-03T11:17:46.646Z,98333.00
2022-08-03T11:20:53.730Z,98322.00
2022-08-03T11:24:03.421Z,98335.00
2022-08-03T11:26:34.687Z,98335.00
2022-08-03T11:29:30.386Z,98331.00
2022-08-03T11:31:58.137Z,98331.00
2022-08-03T11:34:26.002Z,98331.00
2022-08-03T11:37:30.135Z,98331.00
2022-08-03T11:40:02.417Z,98334.00
2022-08-03T11:42:36.544Z,98330.00
2022-08-03T11:45:08.986Z,98327.00
2022-08-03T11:47:50.736Z,98325.00
2022-08-03T11:50:20.069Z,98321.00
2022-08-03T11:52:49.472Z,98318.00
2022-08-03T11:55:22.090Z,98319.00
2022-08-03T11:59:17.274Z,98321.00
2022-08-03T12:00:38.590Z,98319.00
2022-08-03T12:03:12.652Z,98319.00
2022-08-03T12:05:53.629Z,98324.00
2022-08-03T12:08:28.046Z,98310.00
2022-08-03T12:11:00.080Z,98323.00
2022-08-03T12:14:44.636Z,98324.00
2022-08-03T12:16:28.826Z,98316.00
2022-08-03T12:19:09.328Z,98312.00
2022-08-03T12:21:57.373Z,98310.00
2022-08-03T12:24:29.534Z,98316.00
2022-08-03T12:27:00.076Z,98315.00
2022-08-03T12:29:28.030Z,98305.00
2022-08-03T12:31:55.887Z,98315.00
2022-08-03T12:34:24.006Z,98313.00
2022-08-03T12:36:56.748Z,98304.00
2022-08-03T12:39:30.853Z,98309.00
2022-08-03T12:41:59.379Z,98305.00
2022-08-03T12:44:36.702Z,98302.00
2022-08-03T12:47:07.630Z,98306.00
2022-08-03T12:49:54.030Z,98299.00
2022-08-03T12:52:23.262Z,98298.00
2022-08-03T12:55:01.401Z,98302.00
2022-08-03T12:57:42.895Z,98304.00
2022-08-03T13:00:28.651Z,98305.00
2022-08-03T13:05:57.685Z,98298.00
2022-08-03T13:08:25.956Z,98304.00
2022-08-03T13:10:53.988Z,98301.00
2022-08-03T13:13:39.731Z,98289.00
2022-08-03T13:16:07.065Z,98291.00
2022-08-03T13:18:34.447Z,98292.00
2022-08-03T13:21:02.316Z,98289.00
2022-08-03T13:23:29.885Z,98290.00
2022-08-03T13:25:57.261Z,98286.00
2022-08-03T13:28:24.660Z,98287.00
2022-08-03T13:30:54.174Z,98285.00
2022-08-03T13:33:21.662Z,98280.00
2022-08-03T13:35:48.988Z,98283.00
2022-08-03T13:38:17.264Z,98274.00
2022-08-03T13:40:44.760Z,98281.00
2022-08-03T13:43:13.603Z,98280.00
2022-08-03T13:45:42.190Z,98279.00
2022-08-03T13:48:10.925Z,98281.00
2022-08-03T13:50:42.823Z,98285.00
2022-08-03T13:53:10.575Z,98283.00
2022-08-03T13:55:38.006Z,98278.00
2022-08-03T13:58:07.957Z,98260.00
2022-08-03T14:00:35.551Z,98275.00
2022-08-03T14:03:13.734Z,98275.00
2022-08-03T14:05:43.847Z,98268.00
2022-08-03T14:08:13.638Z,98270.00
2022-08-03T14:10:44.947Z,98270.00
2022-08-03T14:13:17.707Z,98272.00
2022-08-03T14:15:49.842Z,98266.00
2022-08-03T14:18:28.925Z,98256.00
2022-08-03T14:21:06.636Z,98271.00
2022-08-03T14:23:37.869Z,98255.00
2022-08-03T14:26:10.518Z,98249.00
2022-08-03T14:28:40.062Z,98249.00
2022-08-03T14:31:15.244Z,98251.00
2022-08-03T14:33:55.137Z,98246.00
2022-08-03T14:36:22.432Z,98251.00
2022-08-03T14:38:49.857Z,98243.00
2022-08-03T14:41:20.029Z,98243.00
2022-08-03T14:44:01.405Z,98244.00
2022-08-03T14:46:31.094Z,98238.00
2022-08-03T14:50:33.159Z,98233.00
2022-08-03T14:51:51.603Z,98228.00
2022-08-03T14:54:22.428Z,98239.00
2022-08-03T14:56:49.759Z,98225.00
2022-08-03T14:59:17.079Z,98233.00
2022-08-03T15:02:03.313Z,98231.00
2022-08-03T15:04:31.983Z,98229.00
2022-08-03T15:06:59.309Z,98220.00
2022-08-03T15:09:28.624Z,98223.00
2022-08-03T15:11:55.954Z,98222.00
2022-08-03T15:14:32.474Z,98220.00
2022-08-03T15:17:02.294Z,98219.00
2022-08-03T15:20:05.565Z,98219.00
2022-08-03T15:22:20.536Z,98214.00
2022-08-03T15:24:52.581Z,98210.00
2022-08-03T15:27:20.125Z,98201.00
2022-08-03T15:30:09.550Z,98207.00
2022-08-03T15:32:35.275Z,98207.00
2022-08-03T15:35:02.666Z,98191.00
2022-08-03T15:37:29.980Z,98197.00
2022-08-03T15:39:58.812Z,98200.00
2022-08-03T15:42:30.737Z,98192.00
2022-08-03T15:44:58.680Z,98200.00
2022-08-03T15:47:26.963Z,98191.00
2022-08-03T15:49:54.485Z,98202.00
2022-08-03T15:52:21.981Z,98189.00
2022-08-03T15:54:49.380Z,98191.00
2022-08-03T15:57:16.684Z,98192.00
2022-08-03T15:59:44.073Z,98184.00
2022-08-03T16:02:11.529Z,98186.00
2022-08-03T16:04:38.888Z,98185.00
2022-08-03T16:07:06.404Z,98179.00
2022-08-03T16:09:42.127Z,98182.00
2022-08-03T16:12:15.849Z,98173.00
2022-08-03T16:14:52.878Z,98181.00
2022-08-03T16:17:22.560Z,98173.00
2022-08-03T16:19:54.106Z,98175.00
2022-08-03T16:22:24.462Z,98174.00
2022-08-03T16:24:55.642Z,98175.00
2022-08-03T16:28:00.360Z,98175.00
2022-08-03T16:30:16.714Z,98178.00
2022-08-03T16:32:47.449Z,98174.00
2022-08-03T16:35:19.230Z,98176.00
2022-08-03T16:37:50.679Z,98179.00
2022-08-03T16:40:25.148Z,98177.00
2022-08-03T16:42:53.439Z,98175.00
2022-08-03T16:45:20.769Z,98167.00
2022-08-03T16:47:48.297Z,98168.00
2022-08-03T16:50:30.489Z,98172.00
2022-08-03T16:52:57.904Z,98167.00
2022-08-03T16:55:48.750Z,98163.00
2022-08-03T16:58:15.091Z,98173.00
2022-08-03T17:00:43.107Z,98168.00
2022-08-03T17:03:18.765Z,98171.00
2022-08-03T17:05:50.183Z,98164.00
2022-08-03T17:08:26.347Z,98164.00
2022-08-03T17:10:56.221Z,98175.00
2022-08-03T17:13:38.902Z,98166.00
2022-08-03T17:16:11.918Z,98162.00
2022-08-03T17:18:57.519Z,98166.00
2022-08-03T17:21:35.428Z,98163.00
2022-08-03T17:24:45.050Z,98166.00
2022-08-03T17:28:51.235Z,98160.00
2022-08-03T17:30:19.093Z,98155.00
2022-08-03T17:32:56.842Z,98155.00
2022-08-03T17:35:34.592Z,98156.00
2022-08-03T17:38:11.899Z,98159.00
2022-08-03T17:40:43.079Z,98157.00
2022-08-03T17:44:13.284Z,98159.00
2022-08-03T17:46:07.216Z,98162.00
2022-08-03T17:48:41.126Z,98167.00
2022-08-03T17:51:31.398Z,98172.00
2022-08-03T17:55:57.370Z,98166.00
2022-08-03T17:58:08.293Z,98167.00
2022-08-03T18:00:59.681Z,98162.00
2022-08-03T18:03:58.405Z,98166.00
2022-08-03T18:06:36.364Z,98168.00
2022-08-03T18:10:02.572Z,98167.00
2022-08-03T18:12:05.173Z,98172.00
2022-08-03T18:14:57.671Z,98174.00
2022-08-03T18:18:01.833Z,98173.00
2022-08-03T18:20:32.145Z,98174.00
2022-08-03T18:23:07.009Z,98176.00
2022-08-03T18:25:42.903Z,98169.00
2022-08-03T18:28:14.521Z,98174.00
2022-08-03T18:30:53.080Z,98183.00
2022-08-03T18:34:16.918Z,98175.00
2022-08-03T18:36:17.980Z,98178.00
2022-08-03T18:38:49.132Z,98179.00
2022-08-03T18:41:21.963Z,98178.00
2022-08-03T18:44:08.221Z,98180.00
2022-08-03T18:51:09.753Z,98178.00
2022-08-03T18:54:06.480Z,98180.00
2022-08-03T18:56:54.441Z,98188.00
2022-08-03T18:59:52.841Z,98182.00
2022-08-03T19:02:48.700Z,98177.00
2022-08-03T19:05:24.671Z,98185.00
2022-08-03T19:08:47.871Z,98186.00
2022-08-03T19:12:13.189Z,98187.00
2022-08-03T19:14:44.243Z,98193.00
2022-08-03T19:17:14.081Z,98191.00
2022-08-03T19:19:52.284Z,98200.00
2022-08-03T19:22:23.043Z,98194.00
2022-08-03T19:24:52.876Z,98198.00
2022-08-03T19:27:27.017Z,98193.00
2022-08-03T19:30:03.036Z,98200.00
2022-08-03T19:32:35.158Z,98201.00
2022-08-03T19:35:10.109Z,98199.00
2022-08-03T19:37:46.540Z,98204.00
2022-08-03T19:40:13.880Z,98208.00
2022-08-03T19:42:46.835Z,98208.00
2022-08-03T19:46:04.863Z,98202.00
2022-08-03T19:48:26.060Z,98212.00
2022-08-03T19:50:56.808Z,98212.00
2022-08-03T19:53:35.362Z,98214.00
2022-08-03T19:56:07.025Z,98214.00
2022-08-03T19:58:35.417Z,98217.00
2022-08-03T20:01:18.934Z,98220.00
2022-08-03T20:03:49.752Z,98218.00
2022-08-03T20:06:23.125Z,98222.00
2022-08-03T20:08:51.833Z,98222.00
2022-08-03T20:11:20.463Z,98220.00
2022-08-03T20:13:59.130Z,98219.00
2022-08-03T20:16:27.225Z,98215.00
2022-08-03T20:18:54.588Z,98217.00
2022-08-03T20:21:27.234Z,98216.00
2022-08-03T20:24:23.080Z,98216.00
2022-08-03T20:26:59.377Z,98215.00
2022-08-03T20:30:07.250Z,98217.00
2022-08-03T20:32:35.685Z,98219.00
2022-08-03T20:35:03.105Z,98221.00
2022-08-03T20:37:37.909Z,98221.00
2022-08-03T20:40:07.212Z,98210.00
2022-08-03T20:42:34.555Z,98219.00
2022-08-03T20:45:05.395Z,98208.00
2022-08-03T20:47:50.660Z,98211.00
2022-08-03T20:50:18.441Z,98204.00
2022-08-03T20:52:50.601Z,98206.00
2022-08-03T20:55:39.106Z,98213.00
2022-08-03T20:58:07.689Z,98211.00
2022-08-03T21:00:35.045Z,98204.00
2022-08-03T21:03:02.561Z,98208.00
2022-08-03T21:05:51.208Z,98210.00
2022-08-03T21:08:20.954Z,98210.00
2022-08-03T21:10:49.366Z,98209.00
2022-08-03T21:13:09.603Z,98175.00
2022-08-03T21:13:45.195Z,98208.00
2022-08-03T21:16:15.321Z,98214.00
2022-08-03T21:18:57.924Z,98209.00
2022-08-03T21:21:32.589Z,98207.00
2022-08-03T21:24:03.528Z,98199.00
2022-08-03T21:26:34.323Z,98195.00
2022-08-03T21:29:02.453Z,98201.00
2022-08-03T21:31:30.024Z,98201.00
2022-08-03T21:34:05.274Z,98196.00
2022-08-03T21:36:37.934Z,98206.00
2022-08-03T21:39:10.069Z,98203.00
2022-08-03T21:41:41.352Z,98204.00
2022-08-03T21:44:09.162Z,98201.00
2022-08-03T21:46:43.130Z,98201.00
2022-08-03T21:50:04.710Z,98208.00
2022-08-03T21:52:07.218Z,98203.00
2022-08-03T21:54:58.272Z,98200.00
2022-08-03T21:57:27.981Z,98199.00
2022-08-03T22:00:14.973Z,98211.00
2022-08-03T22:02:53.185Z,98207.00
2022-08-03T22:05:42.361Z,98205.00
2022-08-03T22:08:13.686Z,98218.00
2022-08-03T22:10:45.011Z,98211.00
2022-08-03T22:13:20.594Z,98223.00
2022-08-03T22:16:05.438Z,98225.00
2022-08-03T22:18:32.918Z,98224.00
2022-08-03T22:21:02.168Z,98225.00
2022-08-03T22:23:30.842Z,98231.00
2022-08-03T22:26:03.436Z,98222.00
2022-08-03T22:28:31.924Z,98223.00
2022-08-03T22:31:00.105Z,98229.00
2022-08-03T22:33:50.113Z,98229.00
2022-08-03T22:36:22.814Z,98228.00
2022-08-03T22:38:53.458Z,98235.00
2022-08-03T22:41:21.568Z,98234.00
2022-08-03T22:43:49.714Z,98241.00
2022-08-03T22:46:23.440Z,98232.00
2022-08-03T22:48:51.701Z,98237.00
2022-08-03T22:51:21.010Z,98239.00
2022-08-03T22:53:49.211Z,98235.00
2022-08-03T22:56:16.547Z,98242.00
2022-08-03T22:58:43.891Z,98231.00
2022-08-03T23:01:18.524Z,98228.00
2022-08-03T23:04:02.069Z,98230.00
2022-08-03T23:06:40.485Z,98227.00
2022-08-03T23:09:12.668Z,98227.00
2022-08-03T23:11:45.960Z,98230.00
2022-08-03T23:14:20.490Z,98232.00
2022-08-03T23:16:50.280Z,98229.00
2022-08-03T23:19:25.045Z,98223.00
2022-08-03T23:22:03.134Z,98232.00
2022-08-03T23:24:38.919Z,98228.00
2022-08-03T23:27:09.161Z,98224.00
2022-08-03T23:29:42.200Z,98235.00
2022-08-03T23:32:12.853Z,98234.00
2022-08-03T23:35:00.617Z,98238.00
2022-08-03T23:37:28.239Z,98228.00
2022-08-03T23:39:56.993Z,98225.00
2022-08-03T23:42:25.436Z,98229.00
2022-08-03T23:45:05.394Z,98230.00
2022-08-03T23:47:46.413Z,98230.00
2022-08-03T23:50:15.448Z,98222.00
2022-08-03T23:53:11.717Z,98226.00
2022-08-03T23:56:11.938Z,98233.00
2022-08-03T23:59:14.075Z,98232.00
